createdAt,value
2018-01-30T00:00:13.209Z,1021.82
2018-01-30T00:01:13.170Z,1021.82
2018-01-30T00:02:13.155Z,1021.89
2018-01-30T00:03:13.173Z,1021.89
2018-01-30T00:04:13.162Z,1021.89
2018-01-30T00:05:13.173Z,1021.97
2018-01-30T00:06:13.156Z,1021.94
2018-01-30T00:07:13.284Z,1021.97
2018-01-30T00:08:13.168Z,1021.94
2018-01-30T00:09:13.160Z,1021.99
2018-01-30T00:10:13.156Z,1022.04
2018-01-30T00:11:13.148Z,1022.02
2018-01-30T00:12:13.206Z,1022.05
2018-01-30T00:13:13.197Z,1022.05
2018-01-30T00:14:13.156Z,1022.04
2018-01-30T00:15:13.165Z,1022.05
2018-01-30T00:16:13.184Z,1022.11
2018-01-30T00:17:13.174Z,1022.13
2018-01-30T00:18:13.187Z,1022.14
2018-01-30T00:19:13.190Z,1022.21
2018-01-30T00:20:13.254Z,1022.22
2018-01-30T00:21:13.158Z,1022.21
2018-01-30T00:22:13.176Z,1022.22
2018-01-30T00:23:13.180Z,1022.13
2018-01-30T00:24:13.209Z,1022.10
2018-01-30T00:25:13.197Z,1022.15
2018-01-30T00:26:13.182Z,1022.20
2018-01-30T00:27:13.160Z,1022.17
2018-01-30T00:28:13.213Z,1022.15
2018-01-30T00:29:13.179Z,1022.19
2018-01-30T00:30:13.190Z,1022.26
2018-01-30T00:31:13.197Z,1022.32
2018-01-30T00:32:13.205Z,1022.32
2018-01-30T00:33:13.168Z,1022.34
2018-01-30T00:34:13.178Z,1022.34
2018-01-30T00:35:13.168Z,1022.37
2018-01-30T00:36:13.208Z,1022.35
2018-01-30T00:37:13.159Z,1022.36
2018-01-30T00:38:13.163Z,1022.40
2018-01-30T00:39:13.162Z,1022.36
2018-01-30T00:40:13.177Z,1022.39
2018-01-30T00:41:13.168Z,1022.41
2018-01-30T00:42:13.198Z,1022.37
2018-01-30T00:43:13.205Z,1022.40
2018-01-30T00:44:13.168Z,1022.45
2018-01-30T00:45:13.185Z,1022.49
2018-01-30T00:46:13.204Z,1022.49
2018-01-30T00:47:13.178Z,1022.49
2018-01-30T00:48:13.167Z,1022.53
2018-01-30T00:49:13.163Z,1022.54
2018-01-30T00:50:13.192Z,1022.55
2018-01-30T00:51:13.180Z,1022.54
2018-01-30T00:52:13.194Z,1022.53
2018-01-30T00:53:13.182Z,1022.51
2018-01-30T00:54:13.171Z,1022.50
2018-01-30T00:55:13.221Z,1022.53
2018-01-30T00:56:13.174Z,1022.50
2018-01-30T00:57:13.211Z,1022.54
2018-01-30T00:58:13.227Z,1022.56
2018-01-30T00:59:13.180Z,1022.54
2018-01-30T01:00:13.213Z,1022.50
2018-01-30T01:01:14.122Z,1022.51
2018-01-30T01:02:13.222Z,1022.53
2018-01-30T01:03:13.173Z,1022.52
2018-01-30T01:04:13.184Z,1022.56
2018-01-30T01:05:13.195Z,1022.53
2018-01-30T01:06:13.191Z,1022.54
2018-01-30T01:07:13.177Z,1022.56
2018-01-30T01:08:13.179Z,1022.53
2018-01-30T01:09:13.194Z,1022.54
2018-01-30T01:10:13.200Z,1022.52
2018-01-30T01:11:13.240Z,1022.52
2018-01-30T01:12:13.201Z,1022.57
2018-01-30T01:13:13.180Z,1022.56
2018-01-30T01:14:14.124Z,1022.54
2018-01-30T01:15:13.196Z,1022.49
2018-01-30T01:16:13.174Z,1022.52
2018-01-30T01:17:13.193Z,1022.54
2018-01-30T01:18:13.212Z,1022.51
2018-01-30T01:19:13.195Z,1022.55
2018-01-30T01:20:13.240Z,1022.46
2018-01-30T01:21:13.196Z,1022.51
2018-01-30T01:22:13.171Z,1022.52
2018-01-30T01:23:13.197Z,1022.58
2018-01-30T01:24:13.183Z,1022.58
2018-01-30T01:25:13.210Z,1022.54
2018-01-30T01:26:13.185Z,1022.54
2018-01-30T01:27:14.122Z,1022.52
2018-01-30T01:28:13.176Z,1022.54
2018-01-30T01:29:13.177Z,1022.57
2018-01-30T01:30:13.189Z,1022.61
2018-01-30T01:31:13.251Z,1022.60
2018-01-30T01:32:14.123Z,1022.59
2018-01-30T01:33:13.206Z,1022.58
2018-01-30T01:34:13.178Z,1022.63
2018-01-30T01:35:13.187Z,1022.58
2018-01-30T01:36:13.187Z,1022.59
2018-01-30T01:37:13.183Z,1022.61
2018-01-30T01:38:13.184Z,1022.65
2018-01-30T01:39:13.186Z,1022.61
2018-01-30T01:40:13.217Z,1022.59
2018-01-30T01:41:13.184Z,1022.56
2018-01-30T01:42:13.214Z,1022.53
2018-01-30T01:43:13.187Z,1022.52
2018-01-30T01:44:13.195Z,1022.51
2018-01-30T01:45:13.176Z,1022.54
2018-01-30T01:46:13.207Z,1022.53
2018-01-30T01:47:13.178Z,1022.53
2018-01-30T01:48:13.181Z,1022.58
2018-01-30T01:49:13.186Z,1022.55
2018-01-30T01:50:13.194Z,1022.58
2018-01-30T01:51:13.201Z,1022.56
2018-01-30T01:52:13.199Z,1022.60
2018-01-30T01:53:13.200Z,1022.55
2018-01-30T01:54:13.197Z,1022.55
2018-01-30T01:55:13.188Z,1022.56
2018-01-30T01:56:13.190Z,1022.54
2018-01-30T01:57:13.178Z,1022.55
2018-01-30T01:58:13.183Z,1022.53
2018-01-30T01:59:13.223Z,1022.50
2018-01-30T02:00:13.189Z,1022.48
2018-01-30T02:01:13.215Z,1022.47
2018-01-30T02:02:13.226Z,1022.41
2018-01-30T02:03:13.246Z,1022.42
2018-01-30T02:04:13.176Z,1022.42
2018-01-30T02:05:13.200Z,1022.44
2018-01-30T02:06:13.220Z,1022.45
2018-01-30T02:07:13.216Z,1022.39
2018-01-30T02:08:13.231Z,1022.41
2018-01-30T02:09:13.207Z,1022.43
2018-01-30T02:10:13.253Z,1022.42
2018-01-30T02:11:13.288Z,1022.44
2018-01-30T02:12:13.228Z,1022.39
2018-01-30T02:13:13.195Z,1022.33
2018-01-30T02:14:13.209Z,1022.36
2018-01-30T02:15:13.228Z,1022.37
2018-01-30T02:16:13.187Z,1022.37
2018-01-30T02:17:13.211Z,1022.36
2018-01-30T02:18:13.232Z,1022.34
2018-01-30T02:19:13.222Z,1022.38
2018-01-30T02:20:13.239Z,1022.43
2018-01-30T02:21:13.229Z,1022.46
2018-01-30T02:22:13.205Z,1022.43
2018-01-30T02:23:13.176Z,1022.41
2018-01-30T02:24:13.200Z,1022.41
2018-01-30T02:25:13.244Z,1022.44
2018-01-30T02:26:13.247Z,1022.41
2018-01-30T02:27:13.217Z,1022.42
2018-01-30T02:28:13.190Z,1022.37
2018-01-30T02:29:13.291Z,1022.36
2018-01-30T02:30:13.196Z,1022.36
2018-01-30T02:31:13.218Z,1022.32
2018-01-30T02:32:13.240Z,1022.31
2018-01-30T02:33:13.235Z,1022.33
2018-01-30T02:34:13.239Z,1022.26
2018-01-30T02:35:13.201Z,1022.28
2018-01-30T02:36:13.257Z,1022.27
2018-01-30T02:37:13.195Z,1022.31
2018-01-30T02:38:13.178Z,1022.31
2018-01-30T02:39:13.233Z,1022.31
2018-01-30T02:40:13.205Z,1022.35
2018-01-30T02:41:13.178Z,1022.34
2018-01-30T02:42:13.241Z,1022.31
2018-01-30T02:43:13.216Z,1022.32
2018-01-30T02:44:13.178Z,1022.30
2018-01-30T02:45:13.205Z,1022.35
2018-01-30T02:46:13.188Z,1022.36
2018-01-30T02:47:13.180Z,1022.35
2018-01-30T02:48:13.196Z,1022.34
2018-01-30T02:49:13.227Z,1022.36
2018-01-30T02:50:13.214Z,1022.35
2018-01-30T02:51:13.188Z,1022.43
2018-01-30T02:52:13.228Z,1022.42
2018-01-30T02:53:13.186Z,1022.45
2018-01-30T02:54:13.199Z,1022.48
2018-01-30T02:55:14.142Z,1022.52
2018-01-30T02:56:13.201Z,1022.53
2018-01-30T02:57:13.178Z,1022.48
2018-01-30T02:58:13.220Z,1022.52
2018-01-30T02:59:13.212Z,1022.49
2018-01-30T03:00:13.216Z,1022.49
2018-01-30T03:01:13.166Z,1022.49
2018-01-30T03:02:13.193Z,1022.49
2018-01-30T03:03:13.186Z,1022.50
2018-01-30T03:04:13.176Z,1022.56
2018-01-30T03:05:13.213Z,1022.56
2018-01-30T03:06:13.207Z,1022.56
2018-01-30T03:07:13.193Z,1022.57
2018-01-30T03:08:13.190Z,1022.51
2018-01-30T03:09:13.179Z,1022.53
2018-01-30T03:10:13.171Z,1022.50
2018-01-30T03:11:13.200Z,1022.51
2018-01-30T03:12:13.172Z,1022.55
2018-01-30T03:13:13.185Z,1022.51
2018-01-30T03:14:13.166Z,1022.56
2018-01-30T03:15:13.160Z,1022.59
2018-01-30T03:16:13.189Z,1022.66
2018-01-30T03:17:13.200Z,1022.70
2018-01-30T03:18:13.203Z,1022.65
2018-01-30T03:19:13.205Z,1022.68
2018-01-30T03:20:13.202Z,1022.67
2018-01-30T03:21:13.168Z,1022.68
2018-01-30T03:22:13.173Z,1022.65
2018-01-30T03:23:13.203Z,1022.66
2018-01-30T03:24:13.168Z,1022.63
2018-01-30T03:25:13.190Z,1022.64
2018-01-30T03:26:13.174Z,1022.65
2018-01-30T03:27:13.168Z,1022.64
2018-01-30T03:28:13.189Z,1022.62
2018-01-30T03:29:13.165Z,1022.64
2018-01-30T03:30:13.173Z,1022.63
2018-01-30T03:31:13.164Z,1022.64
2018-01-30T03:32:13.173Z,1022.65
2018-01-30T03:33:13.197Z,1022.66
2018-01-30T03:34:13.211Z,1022.64
2018-01-30T03:35:13.200Z,1022.62
2018-01-30T03:36:13.709Z,1022.64
2018-01-30T03:37:13.181Z,1022.65
2018-01-30T03:38:13.202Z,1022.65
2018-01-30T03:39:13.203Z,1022.63
2018-01-30T03:40:13.208Z,1022.67
2018-01-30T03:41:13.197Z,1022.64
2018-01-30T03:42:13.160Z,1022.68
2018-01-30T03:43:13.152Z,1022.67
2018-01-30T03:44:13.165Z,1022.68
2018-01-30T03:45:13.171Z,1022.62
2018-01-30T03:46:13.219Z,1022.63
2018-01-30T03:47:13.217Z,1022.67
2018-01-30T03:48:13.234Z,1022.65
2018-01-30T03:49:13.219Z,1022.62
2018-01-30T03:50:13.217Z,1022.60
2018-01-30T03:51:13.157Z,1022.60
2018-01-30T03:52:13.203Z,1022.56
2018-01-30T03:53:13.222Z,1022.60
2018-01-30T03:54:13.174Z,1022.56
2018-01-30T03:55:13.148Z,1022.59
2018-01-30T03:56:13.158Z,1022.60
2018-01-30T03:57:13.162Z,1022.61
2018-01-30T03:58:13.159Z,1022.61
2018-01-30T03:59:13.653Z,1022.66
2018-01-30T04:00:13.165Z,1022.66
2018-01-30T04:01:13.179Z,1022.69
2018-01-30T04:02:13.177Z,1022.72
2018-01-30T04:03:13.156Z,1022.70
2018-01-30T04:04:13.173Z,1022.71
2018-01-30T04:05:13.192Z,1022.74
2018-01-30T04:06:13.143Z,1022.71
2018-01-30T04:07:13.143Z,1022.72
2018-01-30T04:08:13.162Z,1022.72
2018-01-30T04:09:13.168Z,1022.71
2018-01-30T04:10:13.151Z,1022.73
2018-01-30T04:11:13.179Z,1022.74
2018-01-30T04:12:13.663Z,1022.73
2018-01-30T04:13:13.165Z,1022.75
2018-01-30T04:14:13.157Z,1022.76
2018-01-30T04:15:13.187Z,1022.77
2018-01-30T04:16:13.157Z,1022.75
2018-01-30T04:17:13.139Z,1022.78
2018-01-30T04:18:13.141Z,1022.81
2018-01-30T04:19:13.165Z,1022.87
2018-01-30T04:20:13.162Z,1022.88
2018-01-30T04:21:13.181Z,1022.90
2018-01-30T04:22:13.153Z,1022.89
2018-01-30T04:23:13.162Z,1022.84
2018-01-30T04:24:13.174Z,1022.84
2018-01-30T04:25:13.143Z,1022.80
2018-01-30T04:26:13.181Z,1022.75
2018-01-30T04:27:13.178Z,1022.72
2018-01-30T04:28:13.160Z,1022.65
2018-01-30T04:29:13.200Z,1022.72
2018-01-30T04:30:13.672Z,1022.78
2018-01-30T04:31:13.134Z,1022.78
2018-01-30T04:32:13.160Z,1022.79
2018-01-30T04:33:13.194Z,1022.75
2018-01-30T04:34:13.155Z,1022.80
2018-01-30T04:35:13.196Z,1022.77
2018-01-30T04:36:13.151Z,1022.80
2018-01-30T04:37:13.150Z,1022.75
2018-01-30T04:38:13.150Z,1022.78
2018-01-30T04:39:13.151Z,1022.75
2018-01-30T04:40:13.155Z,1022.73
2018-01-30T04:41:13.183Z,1022.71
2018-01-30T04:42:13.164Z,1022.68
2018-01-30T04:43:13.666Z,1022.66
2018-01-30T04:44:13.125Z,1022.69
2018-01-30T04:45:13.199Z,1022.66
2018-01-30T04:46:13.169Z,1022.67
2018-01-30T04:47:13.168Z,1022.70
2018-01-30T04:48:13.124Z,1022.77
2018-01-30T04:49:13.128Z,1022.74
2018-01-30T04:50:13.131Z,1022.71
2018-01-30T04:51:13.136Z,1022.74
2018-01-30T04:52:13.173Z,1022.70
2018-01-30T04:53:13.122Z,1022.70
2018-01-30T04:54:13.122Z,1022.74
2018-01-30T04:55:13.148Z,1022.78
2018-01-30T04:56:13.135Z,1022.79
2018-01-30T04:57:13.137Z,1022.77
2018-01-30T04:58:13.117Z,1022.78
2018-01-30T04:59:13.112Z,1022.75
2018-01-30T05:00:13.164Z,1022.75
2018-01-30T05:01:13.130Z,1022.74
2018-01-30T05:02:13.120Z,1022.72
2018-01-30T05:03:13.123Z,1022.73
2018-01-30T05:04:13.133Z,1022.72
2018-01-30T05:05:13.147Z,1022.71
2018-01-30T05:06:13.117Z,1022.67
2018-01-30T05:07:13.161Z,1022.67
2018-01-30T05:08:13.137Z,1022.63
2018-01-30T05:09:13.165Z,1022.68
2018-01-30T05:10:13.110Z,1022.69
2018-01-30T05:11:13.155Z,1022.69
2018-01-30T05:12:13.115Z,1022.73
2018-01-30T05:13:13.121Z,1022.69
2018-01-30T05:14:13.112Z,1022.70
2018-01-30T05:15:13.132Z,1022.76
2018-01-30T05:16:13.099Z,1022.78
2018-01-30T05:17:13.112Z,1022.83
2018-01-30T05:18:13.116Z,1022.85
2018-01-30T05:19:13.132Z,1022.87
2018-01-30T05:20:13.112Z,1022.87
2018-01-30T05:21:13.172Z,1022.87
2018-01-30T05:22:13.120Z,1022.81
2018-01-30T05:23:13.096Z,1022.84
2018-01-30T05:24:13.100Z,1022.88
2018-01-30T05:25:13.105Z,1022.84
2018-01-30T05:26:13.087Z,1022.89
2018-01-30T05:27:13.226Z,1022.92
2018-01-30T05:28:13.126Z,1022.96
2018-01-30T05:29:13.141Z,1022.99
2018-01-30T05:30:13.110Z,1022.97
2018-01-30T05:31:13.101Z,1022.86
2018-01-30T05:32:13.124Z,1022.92
2018-01-30T05:33:13.106Z,1022.87
2018-01-30T05:34:13.101Z,1022.86
2018-01-30T05:35:13.102Z,1022.82
2018-01-30T05:36:13.159Z,1022.81
2018-01-30T05:37:13.131Z,1022.78
2018-01-30T05:38:13.118Z,1022.85
2018-01-30T05:39:13.112Z,1022.94
2018-01-30T05:40:13.218Z,1022.95
2018-01-30T05:41:13.109Z,1022.95
2018-01-30T05:42:13.091Z,1022.97
2018-01-30T05:43:13.121Z,1023.01
2018-01-30T05:44:13.104Z,1023.01
2018-01-30T05:45:13.146Z,1023.01
2018-01-30T05:46:13.129Z,1023.05
2018-01-30T05:47:13.121Z,1023.00
2018-01-30T05:48:13.151Z,1023.04
2018-01-30T05:49:13.179Z,1023.04
2018-01-30T05:50:13.130Z,1023.01
2018-01-30T05:51:13.086Z,1023.00
2018-01-30T05:52:13.109Z,1023.01
2018-01-30T05:53:13.170Z,1022.99
2018-01-30T05:54:13.093Z,1022.92
2018-01-30T05:55:13.122Z,1022.90
2018-01-30T05:56:13.119Z,1022.91
2018-01-30T05:57:13.160Z,1022.99
2018-01-30T05:58:13.121Z,1023.00
2018-01-30T05:59:13.098Z,1023.03
2018-01-30T06:00:13.102Z,1023.05
2018-01-30T06:01:13.086Z,1023.00
2018-01-30T06:02:13.082Z,1023.01
2018-01-30T06:03:13.077Z,1023.00
2018-01-30T06:04:13.083Z,1023.01
2018-01-30T06:05:13.073Z,1022.99
2018-01-30T06:06:13.091Z,1022.99
2018-01-30T06:07:13.082Z,1022.97
2018-01-30T06:08:13.070Z,1023.02
2018-01-30T06:09:13.103Z,1023.04
2018-01-30T06:10:13.102Z,1023.04
2018-01-30T06:11:13.115Z,1023.02
2018-01-30T06:12:13.111Z,1023.04
2018-01-30T06:13:13.080Z,1022.97
2018-01-30T06:14:13.178Z,1022.97
2018-01-30T06:15:13.093Z,1022.95
2018-01-30T06:16:13.145Z,1022.95
2018-01-30T06:17:13.091Z,1023.01
2018-01-30T06:18:13.071Z,1023.01
2018-01-30T06:19:13.082Z,1023.04
2018-01-30T06:20:13.067Z,1023.08
2018-01-30T06:21:13.684Z,1023.11
2018-01-30T06:22:13.059Z,1023.10
2018-01-30T06:23:13.080Z,1023.10
2018-01-30T06:24:13.084Z,1023.08
2018-01-30T06:25:13.086Z,1023.10
2018-01-30T06:26:13.080Z,1023.03
2018-01-30T06:27:13.059Z,1023.01
2018-01-30T06:28:13.087Z,1023.09
2018-01-30T06:29:13.051Z,1023.09
2018-01-30T06:30:13.066Z,1023.11
2018-01-30T06:31:13.062Z,1023.08
2018-01-30T06:32:13.101Z,1023.05
2018-01-30T06:33:13.071Z,1023.01
2018-01-30T06:34:13.690Z,1023.00
2018-01-30T06:35:13.070Z,1022.97
2018-01-30T06:36:13.083Z,1023.04
2018-01-30T06:37:13.077Z,1023.13
2018-01-30T06:38:13.087Z,1023.13
2018-01-30T06:39:13.063Z,1023.12
2018-01-30T06:40:13.140Z,1023.07
2018-01-30T06:41:13.117Z,1023.01
2018-01-30T06:42:13.061Z,1022.99
2018-01-30T06:43:13.042Z,1022.96
2018-01-30T06:44:13.112Z,1022.99
2018-01-30T06:45:13.117Z,1022.95
2018-01-30T06:46:13.132Z,1022.95
2018-01-30T06:47:13.057Z,1022.95
2018-01-30T06:48:13.093Z,1022.91
2018-01-30T06:49:13.066Z,1022.91
2018-01-30T06:50:13.240Z,1022.91
2018-01-30T06:51:13.095Z,1022.93
2018-01-30T06:52:13.059Z,1022.92
2018-01-30T06:53:13.124Z,1022.91
2018-01-30T06:54:13.056Z,1022.95
2018-01-30T06:55:13.035Z,1022.96
2018-01-30T06:56:13.046Z,1022.96
2018-01-30T06:57:13.041Z,1022.92
2018-01-30T06:58:13.073Z,1022.93
2018-01-30T06:59:13.042Z,1022.92
2018-01-30T07:00:13.034Z,1022.91
2018-01-30T07:01:13.084Z,1022.92
2018-01-30T07:02:13.056Z,1022.89
2018-01-30T07:03:13.061Z,1022.88
2018-01-30T07:04:13.044Z,1022.90
2018-01-30T07:05:13.041Z,1022.96
2018-01-30T07:06:13.031Z,1022.97
2018-01-30T07:07:13.048Z,1023.02
2018-01-30T07:08:13.086Z,1023.03
2018-01-30T07:09:13.031Z,1023.05
2018-01-30T07:10:13.178Z,1023.06
2018-01-30T07:11:13.026Z,1023.10
2018-01-30T07:12:13.211Z,1023.17
2018-01-30T07:13:13.026Z,1023.15
2018-01-30T07:14:13.036Z,1023.16
2018-01-30T07:15:13.047Z,1023.11
2018-01-30T07:16:13.058Z,1023.11
2018-01-30T07:17:13.031Z,1023.12
2018-01-30T07:18:13.093Z,1023.15
2018-01-30T07:19:13.057Z,1023.14
2018-01-30T07:20:13.135Z,1023.13
2018-01-30T07:21:13.037Z,1023.17
2018-01-30T07:22:13.119Z,1023.18
2018-01-30T07:23:13.071Z,1023.19
2018-01-30T07:24:13.070Z,1023.19
2018-01-30T07:25:13.016Z,1023.17
2018-01-30T07:26:13.032Z,1023.18
2018-01-30T07:27:13.046Z,1023.20
2018-01-30T07:28:13.063Z,1023.18
2018-01-30T07:29:13.045Z,1023.18
2018-01-30T07:30:13.018Z,1023.13
2018-01-30T07:31:13.109Z,1023.14
2018-01-30T07:32:13.025Z,1023.13
2018-01-30T07:33:13.677Z,1023.17
2018-01-30T07:34:13.014Z,1023.20
2018-01-30T07:35:13.048Z,1023.26
2018-01-30T07:36:13.023Z,1023.31
2018-01-30T07:37:13.015Z,1023.29
2018-01-30T07:38:13.068Z,1023.36
2018-01-30T07:39:13.006Z,1023.36
2018-01-30T07:40:13.033Z,1023.37
2018-01-30T07:41:13.008Z,1023.39
2018-01-30T07:42:13.072Z,1023.44
2018-01-30T07:43:13.016Z,1023.47
2018-01-30T07:44:13.011Z,1023.49
2018-01-30T07:45:13.032Z,1023.47
2018-01-30T07:46:13.040Z,1023.50
2018-01-30T07:47:13.087Z,1023.47
2018-01-30T07:48:13.039Z,1023.45
2018-01-30T07:49:13.022Z,1023.49
2018-01-30T07:50:13.065Z,1023.48
2018-01-30T07:51:13.007Z,1023.45
2018-01-30T07:52:13.705Z,1023.44
2018-01-30T07:53:13.015Z,1023.43
2018-01-30T07:54:13.002Z,1023.51
2018-01-30T07:55:13.009Z,1023.49
2018-01-30T07:56:13.044Z,1023.51
2018-01-30T07:57:13.018Z,1023.50
2018-01-30T07:58:13.048Z,1023.49
2018-01-30T07:59:13.002Z,1023.47
2018-01-30T08:00:13.028Z,1023.44
2018-01-30T08:01:13.031Z,1023.41
2018-01-30T08:02:13.055Z,1023.46
2018-01-30T08:03:12.998Z,1023.48
2018-01-30T08:04:13.020Z,1023.51
2018-01-30T08:05:13.123Z,1023.49
2018-01-30T08:06:13.012Z,1023.49
2018-01-30T08:07:13.783Z,1023.44
2018-01-30T08:08:12.995Z,1023.42
2018-01-30T08:09:12.995Z,1023.43
2018-01-30T08:10:13.055Z,1023.40
2018-01-30T08:11:13.009Z,1023.46
2018-01-30T08:12:13.722Z,1023.46
2018-01-30T08:13:13.032Z,1023.44
2018-01-30T08:14:13.024Z,1023.43
2018-01-30T08:15:14.005Z,1023.42
2018-01-30T08:17:13.057Z,1023.39
2018-01-30T08:18:13.040Z,1023.41
2018-01-30T08:19:12.992Z,1023.42
2018-01-30T08:20:13.422Z,1023.51
2018-01-30T08:21:13.245Z,1023.53
2018-01-30T08:22:13.036Z,1023.57
2018-01-30T08:23:13.037Z,1023.56
2018-01-30T08:24:13.029Z,1023.51
2018-01-30T08:25:12.995Z,1023.50
2018-01-30T08:26:12.993Z,1023.54
2018-01-30T08:27:13.016Z,1023.55
2018-01-30T08:28:13.792Z,1023.63
2018-01-30T08:29:13.229Z,1023.63
2018-01-30T08:30:13.720Z,1023.66
2018-01-30T08:31:13.717Z,1023.74
2018-01-30T08:32:19.779Z,1023.75
2018-01-30T08:33:13.004Z,1023.71
2018-01-30T08:34:13.722Z,1023.71
2018-01-30T08:35:13.106Z,1023.69
2018-01-30T08:36:13.955Z,1023.69
2018-01-30T08:37:13.140Z,1023.75
2018-01-30T08:38:13.041Z,1023.78
2018-01-30T08:39:13.268Z,1023.72
2018-01-30T08:40:13.061Z,1023.73
2018-01-30T08:41:13.069Z,1023.71
2018-01-30T08:42:14.573Z,1023.75
2018-01-30T08:43:13.132Z,1023.73
2018-01-30T08:44:13.515Z,1023.89
2018-01-30T08:45:13.090Z,1023.74
2018-01-30T08:46:13.078Z,1023.74
2018-01-30T08:47:13.061Z,1023.72
2018-01-30T08:48:13.228Z,1023.69
2018-01-30T08:49:13.715Z,1023.71
2018-01-30T08:50:13.252Z,1023.70
2018-01-30T08:51:13.116Z,1023.68
2018-01-30T08:52:13.226Z,1023.69
2018-01-30T08:53:13.020Z,1023.77
2018-01-30T08:54:13.105Z,1023.68
2018-01-30T08:55:13.066Z,1023.74
2018-01-30T08:56:15.020Z,1023.58
2018-01-30T08:57:13.357Z,1023.55
2018-01-30T08:58:14.051Z,1023.60
2018-01-30T08:59:13.062Z,1023.63
2018-01-30T09:00:13.429Z,1023.60
2018-01-30T09:01:13.265Z,1023.68
2018-01-30T09:02:13.212Z,1023.75
2018-01-30T09:03:14.734Z,1023.73
2018-01-30T09:04:13.392Z,1023.76
2018-01-30T09:05:13.393Z,1023.76
2018-01-30T09:06:14.017Z,1023.75
2018-01-30T09:07:14.022Z,1023.76
2018-01-30T09:08:21.213Z,1023.79
2018-01-30T09:09:13.752Z,1023.81
2018-01-30T09:10:14.829Z,1023.81
2018-01-30T09:11:15.134Z,1023.81
2018-01-30T09:13:21.084Z,1023.69
2018-01-30T09:15:17.494Z,1023.67
2018-01-30T09:16:13.425Z,1023.70
2018-01-30T09:17:13.035Z,1023.78
2018-01-30T09:18:14.133Z,1023.76
2018-01-30T09:19:13.906Z,1023.78
2018-01-30T09:20:16.018Z,1023.74
2018-01-30T09:21:14.260Z,1023.68
2018-01-30T09:22:14.432Z,1023.75
2018-01-30T09:23:14.209Z,1023.83
2018-01-30T09:24:13.192Z,1023.65
2018-01-30T09:25:36.308Z,1023.78
2018-01-30T09:26:37.256Z,1023.65
2018-01-30T09:27:21.887Z,1023.61
2018-01-30T09:28:14.770Z,1023.58
2018-01-30T09:29:14.020Z,1023.55
2018-01-30T09:30:13.196Z,1023.60
2018-01-30T09:31:28.184Z,1023.53
2018-01-30T09:32:14.247Z,1023.60
2018-01-30T09:33:13.107Z,1023.55
2018-01-30T09:34:13.177Z,1023.63
2018-01-30T09:35:13.215Z,1023.66
2018-01-30T09:36:13.069Z,1023.63
2018-01-30T09:37:13.122Z,1023.72
2018-01-30T09:38:13.062Z,1023.72
2018-01-30T09:39:13.046Z,1023.66
2018-01-30T09:40:13.029Z,1023.64
2018-01-30T09:41:14.161Z,1023.70
2018-01-30T09:42:13.218Z,1023.59
2018-01-30T09:43:13.266Z,1023.60
2018-01-30T09:44:13.194Z,1023.57
2018-01-30T09:45:13.359Z,1023.61
2018-01-30T09:46:14.030Z,1023.70
2018-01-30T09:47:13.081Z,1023.80
2018-01-30T09:48:13.356Z,1023.72
2018-01-30T09:49:13.569Z,1023.70
2018-01-30T09:50:13.073Z,1023.77
2018-01-30T09:51:13.797Z,1023.64
2018-01-30T09:52:14.318Z,1023.64
2018-01-30T09:53:13.566Z,1023.67
2018-01-30T09:54:13.549Z,1023.68
2018-01-30T09:55:13.234Z,1023.73
2018-01-30T09:56:13.771Z,1023.59
2018-01-30T09:57:13.094Z,1023.54
2018-01-30T09:58:13.159Z,1023.53
2018-01-30T09:59:15.516Z,1023.56
2018-01-30T10:00:14.518Z,1023.52
2018-01-30T10:01:14.542Z,1023.57
2018-01-30T10:02:13.218Z,1023.65
2018-01-30T10:03:15.347Z,1023.59
2018-01-30T10:04:13.273Z,1023.55
2018-01-30T10:05:14.286Z,1023.66
2018-01-30T10:06:14.673Z,1023.81
2018-01-30T10:07:13.223Z,1023.54
2018-01-30T10:08:13.490Z,1023.59
2018-01-30T10:09:14.175Z,1023.65
2018-01-30T10:10:14.075Z,1023.77
2018-01-30T10:11:13.121Z,1023.64
2018-01-30T10:12:16.306Z,1023.69
2018-01-30T10:13:13.327Z,1023.75
2018-01-30T10:14:13.168Z,1023.82
2018-01-30T10:15:13.288Z,1023.69
2018-01-30T10:16:13.456Z,1023.72
2018-01-30T10:17:13.242Z,1023.73
2018-01-30T10:18:13.175Z,1023.75
2018-01-30T10:19:13.238Z,1023.85
2018-01-30T10:20:13.905Z,1023.76
2018-01-30T10:21:13.208Z,1023.66
2018-01-30T10:22:13.171Z,1023.73
2018-01-30T10:23:13.915Z,1023.66
2018-01-30T10:24:13.925Z,1023.61
2018-01-30T10:25:13.098Z,1023.65
2018-01-30T10:26:13.184Z,1023.76
2018-01-30T10:27:13.201Z,1023.68
2018-01-30T10:28:13.183Z,1023.85
2018-01-30T10:29:13.074Z,1023.78
2018-01-30T10:30:13.223Z,1023.78
2018-01-30T10:31:13.104Z,1023.85
2018-01-30T10:32:13.374Z,1023.77
2018-01-30T10:33:13.184Z,1023.88
2018-01-30T10:34:14.091Z,1023.77
2018-01-30T10:35:13.285Z,1023.86
2018-01-30T10:36:14.279Z,1023.68
2018-01-30T10:37:14.133Z,1023.71
2018-01-30T10:38:13.171Z,1023.64
2018-01-30T10:39:13.175Z,1023.78
2018-01-30T10:40:13.908Z,1023.91
2018-01-30T10:41:13.248Z,1023.97
2018-01-30T10:42:13.906Z,1023.77
2018-01-30T10:43:13.179Z,1023.71
2018-01-30T10:44:13.214Z,1023.86
2018-01-30T10:45:13.404Z,1023.95
2018-01-30T10:46:13.509Z,1023.97
2018-01-30T10:47:13.478Z,1023.88
2018-01-30T10:48:14.476Z,1023.86
2018-01-30T10:49:13.904Z,1023.76
2018-01-30T10:50:13.155Z,1023.85
2018-01-30T10:51:13.293Z,1023.65
2018-01-30T10:52:13.281Z,1023.66
2018-01-30T10:53:13.163Z,1023.75
2018-01-30T10:54:13.219Z,1023.76
2018-01-30T10:55:13.297Z,1023.76
2018-01-30T10:56:13.495Z,1023.74
2018-01-30T10:57:14.145Z,1023.70
2018-01-30T10:58:13.184Z,1023.71
2018-01-30T10:59:13.213Z,1023.75
2018-01-30T11:00:13.261Z,1023.70
2018-01-30T11:01:14.389Z,1023.64
2018-01-30T11:02:13.565Z,1023.69
2018-01-30T11:03:14.067Z,1023.70
2018-01-30T11:04:13.458Z,1023.64
2018-01-30T11:05:13.387Z,1023.60
2018-01-30T11:06:13.323Z,1023.59
2018-01-30T11:07:13.172Z,1023.54
2018-01-30T11:08:13.292Z,1023.59
2018-01-30T11:09:14.211Z,1023.66
2018-01-30T11:10:13.973Z,1023.71
2018-01-30T11:11:13.321Z,1023.71
2018-01-30T11:12:13.735Z,1023.68
2018-01-30T11:13:13.358Z,1023.60
2018-01-30T11:14:13.208Z,1023.62
2018-01-30T11:15:14.984Z,1023.57
2018-01-30T11:16:13.573Z,1023.61
2018-01-30T11:17:13.322Z,1023.60
2018-01-30T11:18:13.229Z,1023.61
2018-01-30T11:19:14.501Z,1023.59
2018-01-30T11:20:13.158Z,1023.58
2018-01-30T11:21:13.268Z,1023.56
2018-01-30T11:22:13.206Z,1023.52
2018-01-30T11:23:13.384Z,1023.54
2018-01-30T11:24:14.274Z,1023.55
2018-01-30T11:25:13.264Z,1023.57
2018-01-30T11:26:13.495Z,1023.57
2018-01-30T11:27:13.293Z,1023.60
2018-01-30T11:28:13.258Z,1023.56
2018-01-30T11:29:13.263Z,1023.57
2018-01-30T11:30:13.467Z,1023.60
2018-01-30T11:31:13.320Z,1023.59
2018-01-30T11:32:13.254Z,1023.69
2018-01-30T11:33:13.273Z,1023.63
2018-01-30T11:34:13.304Z,1023.68
2018-01-30T11:35:13.304Z,1023.65
2018-01-30T11:36:13.455Z,1023.58
2018-01-30T11:37:13.365Z,1023.60
2018-01-30T11:38:13.258Z,1023.61
2018-01-30T11:39:13.234Z,1023.57
2018-01-30T11:40:13.343Z,1023.66
2018-01-30T11:41:13.248Z,1023.61
2018-01-30T11:42:13.269Z,1023.55
2018-01-30T11:43:13.197Z,1023.55
2018-01-30T11:44:13.211Z,1023.64
2018-01-30T11:45:13.296Z,1023.65
2018-01-30T11:46:13.313Z,1023.58
2018-01-30T11:48:45.788Z,1023.48
2018-01-30T11:49:45.998Z,1023.43
2018-01-30T11:50:46.282Z,1023.52
2018-01-30T11:51:45.574Z,1023.47
2018-01-30T11:52:45.593Z,1023.53
2018-01-30T11:53:45.649Z,1023.48
2018-01-30T11:54:45.735Z,1023.45
2018-01-30T11:55:45.640Z,1023.42
2018-01-30T11:56:45.673Z,1023.39
2018-01-30T11:57:45.804Z,1023.46
2018-01-30T11:58:45.624Z,1023.40
2018-01-30T11:59:45.646Z,1023.46
2018-01-30T12:00:45.626Z,1023.50
2018-01-30T12:01:45.813Z,1023.43
2018-01-30T12:02:45.651Z,1023.44
2018-01-30T12:03:45.668Z,1023.43
2018-01-30T12:04:45.977Z,1023.44
2018-01-30T12:07:18.087Z,1023.29
2018-01-30T12:09:51.673Z,1023.23
2018-01-30T12:10:51.494Z,1023.38
2018-01-30T12:11:51.301Z,1023.26
2018-01-30T12:12:51.566Z,1023.27